Detailed System and Site Information

System Data Health
Measure Timestamp Ago Health
Web Server Live 23:27:12, 30th March 2017 0 s health
Last live-data upload from local system (nw3) 23:27:08, 30th March 2017 4 s health
Last upload of secondary data 23:00:23, 30th March 2017 27 mins health
Latest Webcam upload 23:27:09, 30th March 2017 3 s health
Last upload of 24hr data log 23:24:08, 30th March 2017 3 mins health
Last full data process 23:25:07, 30th March 2017 2 mins health
Last data downtime (>15 mins) 13:16:03, 22nd January 2017 67 days
Local System and Site Information
Measure Value
WD Version & Build # 10.37R - 40
WD Start Time 22:01 02/03/17
WD Data Count 843296
WD Memory Use 56,812 K
--- ---
Windows Uptime 10 Days 20 Hours 30 Minutes 47 Seconds
Free System Memory 2791 MB (Max: 4GB)
--- ---
Station Altitude 57 m (187 ft)
Station Latitude 51.556
Station Longitude -0.154
Machine Room Conditions
Measure Value
Temperature 24.8 °C
Temperature Trend +0.1 °C /hr
Relative Humidity 34%
Dew Point 7.9 °C
--- ---
Tmin Today 20.6 °C at 06:42
Tmax Today 24.9 °C at 17:40
Hmin Today 33% at 16:32
Hmax Today 37% at 07:19
Tmin Yesterday 21.3 °C at 06:41
Tmax Yesterday 23.5 °C at 00:00

Site owner and administrator: Ben Lee-Rodgers (2010 - present)

Last 10hrs Temp/Hum for Secondary Sensor and Indoors

Extra Sensors/Indoor

Other

Raw METAR from EGLL (Heathrow)

EGLL 302120Z AUTO 15005KT 9999 NCD 16/09 Q1014 NOSIG
Decode Instructions
Source

WD Screenshot

not available